sensor_id;sensor_type;location;lat;lon;timestamp;P1;durP1;ratioP1;P2;durP2;ratioP2
46230;SDS011;31949;51.404;-0.038;2023-04-25T00:00:22;12.50;;;3.63;;
46230;SDS011;31949;51.404;-0.038;2023-04-25T00:02:49;10.70;;;4.05;;
46230;SDS011;31949;51.404;-0.038;2023-04-25T00:05:17;13.85;;;3.58;;
46230;SDS011;31949;51.404;-0.038;2023-04-25T00:07:48;20.17;;;5.30;;
46230;SDS011;31949;51.404;-0.038;2023-04-25T00:10:16;11.50;;;3.72;;
46230;SDS011;31949;51.404;-0.038;2023-04-25T00:12:43;11.77;;;3.63;;
46230;SDS011;31949;51.404;-0.038;2023-04-25T00:15:11;13.52;;;3.53;;
46230;SDS011;31949;51.404;-0.038;2023-04-25T00:17:38;18.75;;;4.57;;
46230;SDS011;31949;51.404;-0.038;2023-04-25T00:20:06;14.18;;;3.80;;
46230;SDS011;31949;51.404;-0.038;2023-04-25T00:22:36;7.97;;;3.88;;
46230;SDS011;31949;51.404;-0.038;2023-04-25T00:25:06;16.65;;;5.03;;
46230;SDS011;31949;51.404;-0.038;2023-04-25T00:27:34;8.98;;;2.60;;
46230;SDS011;31949;51.404;-0.038;2023-04-25T00:30:01;14.75;;;3.33;;
46230;SDS011;31949;51.404;-0.038;2023-04-25T00:32:29;16.98;;;3.90;;
46230;SDS011;31949;51.404;-0.038;2023-04-25T00:34:56;16.30;;;4.00;;
46230;SDS011;31949;51.404;-0.038;2023-04-25T00:37:24;22.58;;;4.07;;
46230;SDS011;31949;51.404;-0.038;2023-04-25T00:39:52;7.28;;;2.67;;
46230;SDS011;31949;51.404;-0.038;2023-04-25T00:42:21;20.75;;;4.20;;
46230;SDS011;31949;51.404;-0.038;2023-04-25T00:44:49;12.15;;;3.85;;
46230;SDS011;31949;51.404;-0.038;2023-04-25T00:47:18;18.73;;;3.75;;
46230;SDS011;31949;51.404;-0.038;2023-04-25T00:49:46;10.40;;;3.10;;
46230;SDS011;31949;51.404;-0.038;2023-04-25T00:52:14;9.05;;;3.03;;
46230;SDS011;31949;51.404;-0.038;2023-04-25T00:54:41;6.72;;;2.40;;
46230;SDS011;31949;51.404;-0.038;2023-04-25T00:57:11;10.80;;;2.95;;
46230;SDS011;31949;51.404;-0.038;2023-04-25T00:59:38;10.02;;;3.00;;
46230;SDS011;31949;51.404;-0.038;2023-04-25T01:02:13;11.23;;;2.85;;
46230;SDS011;31949;51.404;-0.038;2023-04-25T01:04:40;9.25;;;3.78;;
46230;SDS011;31949;51.404;-0.038;2023-04-25T01:07:08;17.55;;;3.45;;
46230;SDS011;31949;51.404;-0.038;2023-04-25T01:09:36;7.03;;;3.22;;
46230;SDS011;31949;51.404;-0.038;2023-04-25T01:12:03;15.02;;;3.10;;
46230;SDS011;31949;51.404;-0.038;2023-04-25T01:14:31;8.90;;;2.85;;
46230;SDS011;31949;51.404;-0.038;2023-04-25T01:16:58;8.63;;;2.35;;
46230;SDS011;31949;51.404;-0.038;2023-04-25T01:19:25;11.57;;;2.92;;
46230;SDS011;31949;51.404;-0.038;2023-04-25T01:21:53;8.75;;;2.45;;
46230;SDS011;31949;51.404;-0.038;2023-04-25T01:24:20;16.23;;;3.55;;
46230;SDS011;31949;51.404;-0.038;2023-04-25T01:26:48;10.27;;;3.00;;
46230;SDS011;31949;51.404;-0.038;2023-04-25T01:29:21;11.20;;;2.50;;
46230;SDS011;31949;51.404;-0.038;2023-04-25T01:31:51;8.70;;;3.60;;
46230;SDS011;31949;51.404;-0.038;2023-04-25T01:34:19;12.63;;;3.30;;
46230;SDS011;31949;51.404;-0.038;2023-04-25T01:36:48;14.05;;;4.40;;
46230;SDS011;31949;51.404;-0.038;2023-04-25T01:39:17;7.22;;;2.53;;
46230;SDS011;31949;51.404;-0.038;2023-04-25T01:41:48;10.70;;;2.85;;
46230;SDS011;31949;51.404;-0.038;2023-04-25T01:44:16;14.63;;;3.28;;
46230;SDS011;31949;51.404;-0.038;2023-04-25T01:46:43;9.23;;;2.80;;
46230;SDS011;31949;51.404;-0.038;2023-04-25T01:49:10;7.28;;;2.40;;
46230;SDS011;31949;51.404;-0.038;2023-04-25T01:51:39;8.07;;;2.28;;
46230;SDS011;31949;51.404;-0.038;2023-04-25T01:54:07;7.82;;;2.45;;
46230;SDS011;31949;51.404;-0.038;2023-04-25T01:56:36;12.60;;;3.15;;
46230;SDS011;31949;51.404;-0.038;2023-04-25T01:59:06;7.72;;;2.30;;
46230;SDS011;31949;51.404;-0.038;2023-04-25T02:02:02;8.85;;;2.10;;
46230;SDS011;31949;51.404;-0.038;2023-04-25T02:04:32;7.95;;;3.47;;
46230;SDS011;31949;51.404;-0.038;2023-04-25T02:07:00;9.77;;;3.13;;
46230;SDS011;31949;51.404;-0.038;2023-04-25T02:09:37;13.43;;;3.50;;
46230;SDS011;31949;51.404;-0.038;2023-04-25T02:12:07;13.75;;;2.85;;
46230;SDS011;31949;51.404;-0.038;2023-04-25T02:17:40;12.20;;;3.60;;
46230;SDS011;31949;51.404;-0.038;2023-04-25T02:20:07;7.97;;;3.22;;
46230;SDS011;31949;51.404;-0.038;2023-04-25T02:22:35;7.40;;;3.58;;
46230;SDS011;31949;51.404;-0.038;2023-04-25T02:25:04;10.50;;;3.45;;
46230;SDS011;31949;51.404;-0.038;2023-04-25T02:27:32;23.70;;;6.63;;
46230;SDS011;31949;51.404;-0.038;2023-04-25T02:30:00;10.82;;;3.13;;
46230;SDS011;31949;51.404;-0.038;2023-04-25T02:32:27;10.65;;;3.30;;
46230;SDS011;31949;51.404;-0.038;2023-04-25T02:34:54;14.95;;;3.90;;
46230;SDS011;31949;51.404;-0.038;2023-04-25T02:37:22;15.25;;;3.55;;
46230;SDS011;31949;51.404;-0.038;2023-04-25T02:39:49;12.05;;;3.45;;
46230;SDS011;31949;51.404;-0.038;2023-04-25T02:42:17;13.20;;;3.33;;
46230;SDS011;31949;51.404;-0.038;2023-04-25T02:44:44;15.45;;;4.70;;
46230;SDS011;31949;51.404;-0.038;2023-04-25T02:47:11;17.13;;;4.10;;
46230;SDS011;31949;51.404;-0.038;2023-04-25T02:49:39;14.20;;;4.00;;
46230;SDS011;31949;51.404;-0.038;2023-04-25T02:52:07;11.45;;;3.20;;
46230;SDS011;31949;51.404;-0.038;2023-04-25T02:54:35;8.75;;;3.78;;
46230;SDS011;31949;51.404;-0.038;2023-04-25T02:57:02;12.30;;;4.18;;
46230;SDS011;31949;51.404;-0.038;2023-04-25T02:59:35;7.88;;;3.85;;
46230;SDS011;31949;51.404;-0.038;2023-04-25T03:02:02;12.65;;;4.38;;
46230;SDS011;31949;51.404;-0.038;2023-04-25T03:04:29;11.48;;;4.13;;
46230;SDS011;31949;51.404;-0.038;2023-04-25T03:06:57;13.88;;;3.70;;
46230;SDS011;31949;51.404;-0.038;2023-04-25T03:09:24;14.38;;;5.57;;
46230;SDS011;31949;51.404;-0.038;2023-04-25T03:11:51;10.63;;;4.57;;
46230;SDS011;31949;51.404;-0.038;2023-04-25T03:14:19;11.30;;;4.00;;
46230;SDS011;31949;51.404;-0.038;2023-04-25T03:16:47;11.27;;;3.60;;
46230;SDS011;31949;51.404;-0.038;2023-04-25T03:19:16;11.50;;;3.85;;
46230;SDS011;31949;51.404;-0.038;2023-04-25T03:21:44;7.47;;;3.13;;
46230;SDS011;31949;51.404;-0.038;2023-04-25T03:24:11;8.77;;;3.55;;
46230;SDS011;31949;51.404;-0.038;2023-04-25T03:26:39;15.68;;;4.53;;
46230;SDS011;31949;51.404;-0.038;2023-04-25T03:29:08;10.70;;;3.80;;
46230;SDS011;31949;51.404;-0.038;2023-04-25T03:31:37;15.05;;;4.07;;
46230;SDS011;31949;51.404;-0.038;2023-04-25T03:34:04;10.48;;;3.08;;
46230;SDS011;31949;51.404;-0.038;2023-04-25T03:36:31;10.65;;;4.40;;
46230;SDS011;31949;51.404;-0.038;2023-04-25T03:38:59;10.50;;;3.03;;
46230;SDS011;31949;51.404;-0.038;2023-04-25T03:41:29;7.43;;;3.40;;
46230;SDS011;31949;51.404;-0.038;2023-04-25T03:44:01;9.23;;;3.90;;
46230;SDS011;31949;51.404;-0.038;2023-04-25T03:46:28;15.32;;;3.65;;
46230;SDS011;31949;51.404;-0.038;2023-04-25T03:48:56;11.07;;;3.25;;
46230;SDS011;31949;51.404;-0.038;2023-04-25T03:51:32;9.95;;;3.35;;
46230;SDS011;31949;51.404;-0.038;2023-04-25T03:54:01;11.52;;;3.45;;
46230;SDS011;31949;51.404;-0.038;2023-04-25T03:56:37;13.20;;;4.03;;
46230;SDS011;31949;51.404;-0.038;2023-04-25T03:59:14;9.80;;;3.75;;
46230;SDS011;31949;51.404;-0.038;2023-04-25T04:01:41;12.20;;;3.30;;
46230;SDS011;31949;51.404;-0.038;2023-04-25T04:04:08;10.73;;;2.80;;
46230;SDS011;31949;51.404;-0.038;2023-04-25T04:06:36;8.02;;;3.22;;
46230;SDS011;31949;51.404;-0.038;2023-04-25T04:09:11;7.88;;;3.15;;
46230;SDS011;31949;51.404;-0.038;2023-04-25T04:11:41;10.23;;;3.95;;
46230;SDS011;31949;51.404;-0.038;2023-04-25T04:14:08;12.13;;;3.10;;
46230;SDS011;31949;51.404;-0.038;2023-04-25T04:16:41;6.05;;;3.22;;
46230;SDS011;31949;51.404;-0.038;2023-04-25T04:19:08;11.23;;;3.65;;
46230;SDS011;31949;51.404;-0.038;2023-04-25T04:21:37;10.43;;;3.72;;
46230;SDS011;31949;51.404;-0.038;2023-04-25T04:24:04;7.95;;;2.67;;
46230;SDS011;31949;51.404;-0.038;2023-04-25T04:26:44;7.50;;;3.72;;
46230;SDS011;31949;51.404;-0.038;2023-04-25T04:29:28;9.40;;;3.45;;
46230;SDS011;31949;51.404;-0.038;2023-04-25T04:32:07;8.88;;;4.60;;
46230;SDS011;31949;51.404;-0.038;2023-04-25T04:34:35;8.55;;;2.65;;
46230;SDS011;31949;51.404;-0.038;2023-04-25T04:37:03;10.00;;;3.03;;
46230;SDS011;31949;51.404;-0.038;2023-04-25T04:39:30;17.98;;;5.93;;
46230;SDS011;31949;51.404;-0.038;2023-04-25T04:42:06;14.73;;;3.55;;
46230;SDS011;31949;51.404;-0.038;2023-04-25T04:44:56;10.18;;;4.18;;
46230;SDS011;31949;51.404;-0.038;2023-04-25T04:47:38;12.82;;;5.10;;
46230;SDS011;31949;51.404;-0.038;2023-04-25T04:50:25;12.63;;;3.60;;
46230;SDS011;31949;51.404;-0.038;2023-04-25T04:53:18;17.30;;;3.25;;
46230;SDS011;31949;51.404;-0.038;2023-04-25T04:56:08;9.48;;;3.30;;
46230;SDS011;31949;51.404;-0.038;2023-04-25T04:58:56;9.90;;;2.97;;
46230;SDS011;31949;51.404;-0.038;2023-04-25T05:02:02;7.95;;;3.75;;
46230;SDS011;31949;51.404;-0.038;2023-04-25T05:04:58;5.32;;;2.97;;
46230;SDS011;31949;51.404;-0.038;2023-04-25T05:07:25;11.23;;;3.17;;
46230;SDS011;31949;51.404;-0.038;2023-04-25T05:10:04;11.82;;;3.95;;
46230;SDS011;31949;51.404;-0.038;2023-04-25T05:13:02;10.75;;;2.97;;
46230;SDS011;31949;51.404;-0.038;2023-04-25T05:15:47;12.68;;;3.75;;
46230;SDS011;31949;51.404;-0.038;2023-04-25T05:18:17;12.75;;;3.45;;
46230;SDS011;31949;51.404;-0.038;2023-04-25T05:21:06;8.70;;;3.92;;
46230;SDS011;31949;51.404;-0.038;2023-04-25T05:23:40;12.65;;;2.90;;
46230;SDS011;31949;51.404;-0.038;2023-04-25T05:26:25;8.00;;;3.55;;
46230;SDS011;31949;51.404;-0.038;2023-04-25T05:29:20;9.25;;;3.67;;
46230;SDS011;31949;51.404;-0.038;2023-04-25T05:32:13;15.23;;;3.80;;
46230;SDS011;31949;51.404;-0.038;2023-04-25T05:34:41;13.85;;;3.78;;
46230;SDS011;31949;51.404;-0.038;2023-04-25T05:37:18;15.65;;;3.42;;
46230;SDS011;31949;51.404;-0.038;2023-04-25T05:40:08;15.85;;;3.95;;
46230;SDS011;31949;51.404;-0.038;2023-04-25T05:42:55;12.35;;;4.38;;
46230;SDS011;31949;51.404;-0.038;2023-04-25T05:45:30;13.05;;;3.60;;
46230;SDS011;31949;51.404;-0.038;2023-04-25T05:48:03;15.57;;;4.65;;
46230;SDS011;31949;51.404;-0.038;2023-04-25T05:50:57;10.23;;;2.78;;
46230;SDS011;31949;51.404;-0.038;2023-04-25T05:53:44;9.40;;;3.55;;
46230;SDS011;31949;51.404;-0.038;2023-04-25T05:56:13;13.07;;;4.75;;
46230;SDS011;31949;51.404;-0.038;2023-04-25T05:58:40;9.48;;;3.38;;
46230;SDS011;31949;51.404;-0.038;2023-04-25T06:01:10;11.98;;;4.30;;
46230;SDS011;31949;51.404;-0.038;2023-04-25T06:03:39;14.68;;;3.58;;
46230;SDS011;31949;51.404;-0.038;2023-04-25T06:06:10;12.32;;;2.80;;
46230;SDS011;31949;51.404;-0.038;2023-04-25T06:08:38;10.40;;;4.05;;
46230;SDS011;31949;51.404;-0.038;2023-04-25T06:11:06;12.30;;;3.28;;
46230;SDS011;31949;51.404;-0.038;2023-04-25T06:13:34;12.80;;;5.25;;
46230;SDS011;31949;51.404;-0.038;2023-04-25T06:16:01;14.38;;;4.00;;
46230;SDS011;31949;51.404;-0.038;2023-04-25T06:18:29;17.75;;;4.22;;
46230;SDS011;31949;51.404;-0.038;2023-04-25T06:20:56;16.27;;;3.78;;
46230;SDS011;31949;51.404;-0.038;2023-04-25T06:23:24;13.82;;;2.70;;
46230;SDS011;31949;51.404;-0.038;2023-04-25T06:25:58;12.48;;;3.50;;
46230;SDS011;31949;51.404;-0.038;2023-04-25T06:28:27;13.55;;;3.33;;
46230;SDS011;31949;51.404;-0.038;2023-04-25T06:30:54;11.15;;;3.17;;
46230;SDS011;31949;51.404;-0.038;2023-04-25T06:33:21;9.95;;;3.13;;
46230;SDS011;31949;51.404;-0.038;2023-04-25T06:35:51;10.98;;;3.28;;
46230;SDS011;31949;51.404;-0.038;2023-04-25T06:38:23;9.57;;;3.10;;
46230;SDS011;31949;51.404;-0.038;2023-04-25T06:40:51;7.15;;;2.83;;
46230;SDS011;31949;51.404;-0.038;2023-04-25T06:43:18;11.32;;;3.65;;
46230;SDS011;31949;51.404;-0.038;2023-04-25T06:46:10;12.80;;;3.83;;
46230;SDS011;31949;51.404;-0.038;2023-04-25T06:48:42;7.20;;;3.42;;
46230;SDS011;31949;51.404;-0.038;2023-04-25T06:51:10;10.45;;;3.40;;
46230;SDS011;31949;51.404;-0.038;2023-04-25T06:53:40;10.10;;;3.28;;
46230;SDS011;31949;51.404;-0.038;2023-04-25T06:56:11;8.43;;;3.70;;
46230;SDS011;31949;51.404;-0.038;2023-04-25T06:58:51;9.73;;;3.53;;
46230;SDS011;31949;51.404;-0.038;2023-04-25T07:01:36;7.60;;;3.10;;
46230;SDS011;31949;51.404;-0.038;2023-04-25T07:04:08;11.18;;;3.80;;
46230;SDS011;31949;51.404;-0.038;2023-04-25T07:09:11;12.60;;;3.22;;
46230;SDS011;31949;51.404;-0.038;2023-04-25T07:11:40;7.28;;;2.67;;
46230;SDS011;31949;51.404;-0.038;2023-04-25T07:14:08;14.63;;;3.17;;
46230;SDS011;31949;51.404;-0.038;2023-04-25T07:16:35;18.58;;;3.33;;
46230;SDS011;31949;51.404;-0.038;2023-04-25T07:19:02;9.27;;;2.83;;
46230;SDS011;31949;51.404;-0.038;2023-04-25T07:21:30;9.57;;;3.40;;
46230;SDS011;31949;51.404;-0.038;2023-04-25T07:23:59;14.40;;;3.17;;
46230;SDS011;31949;51.404;-0.038;2023-04-25T07:26:31;10.02;;;4.10;;
46230;SDS011;31949;51.404;-0.038;2023-04-25T07:29:24;7.10;;;2.80;;
46230;SDS011;31949;51.404;-0.038;2023-04-25T07:31:51;10.20;;;3.38;;
46230;SDS011;31949;51.404;-0.038;2023-04-25T07:34:19;8.48;;;3.10;;
46230;SDS011;31949;51.404;-0.038;2023-04-25T07:36:47;9.50;;;2.85;;
46230;SDS011;31949;51.404;-0.038;2023-04-25T07:39:15;11.45;;;3.30;;
46230;SDS011;31949;51.404;-0.038;2023-04-25T07:41:42;8.13;;;2.60;;
46230;SDS011;31949;51.404;-0.038;2023-04-25T07:44:15;12.13;;;3.08;;
46230;SDS011;31949;51.404;-0.038;2023-04-25T07:46:43;22.95;;;4.25;;
46230;SDS011;31949;51.404;-0.038;2023-04-25T07:49:11;14.02;;;3.90;;
46230;SDS011;31949;51.404;-0.038;2023-04-25T07:51:41;5.63;;;2.30;;
46230;SDS011;31949;51.404;-0.038;2023-04-25T07:54:13;11.43;;;3.03;;
46230;SDS011;31949;51.404;-0.038;2023-04-25T07:56:47;14.70;;;3.00;;
46230;SDS011;31949;51.404;-0.038;2023-04-25T07:59:22;9.27;;;2.63;;
46230;SDS011;31949;51.404;-0.038;2023-04-25T08:01:50;9.10;;;2.88;;
46230;SDS011;31949;51.404;-0.038;2023-04-25T08:04:18;9.27;;;2.35;;
46230;SDS011;31949;51.404;-0.038;2023-04-25T08:06:51;11.20;;;2.55;;
46230;SDS011;31949;51.404;-0.038;2023-04-25T08:09:26;9.02;;;2.55;;
46230;SDS011;31949;51.404;-0.038;2023-04-25T08:11:55;9.10;;;2.10;;
46230;SDS011;31949;51.404;-0.038;2023-04-25T08:14:28;8.60;;;2.70;;
46230;SDS011;31949;51.404;-0.038;2023-04-25T08:17:03;7.45;;;2.65;;
46230;SDS011;31949;51.404;-0.038;2023-04-25T08:19:39;8.93;;;2.67;;
46230;SDS011;31949;51.404;-0.038;2023-04-25T08:22:13;6.97;;;2.40;;
46230;SDS011;31949;51.404;-0.038;2023-04-25T08:24:50;9.77;;;2.72;;
46230;SDS011;31949;51.404;-0.038;2023-04-25T08:27:20;7.05;;;3.10;;
46230;SDS011;31949;51.404;-0.038;2023-04-25T08:29:47;7.28;;;2.50;;
46230;SDS011;31949;51.404;-0.038;2023-04-25T08:32:15;10.57;;;2.80;;
46230;SDS011;31949;51.404;-0.038;2023-04-25T08:35:00;13.50;;;3.22;;
46230;SDS011;31949;51.404;-0.038;2023-04-25T08:37:28;8.95;;;2.78;;
46230;SDS011;31949;51.404;-0.038;2023-04-25T08:40:00;9.05;;;2.55;;
46230;SDS011;31949;51.404;-0.038;2023-04-25T08:42:57;9.63;;;2.55;;
46230;SDS011;31949;51.404;-0.038;2023-04-25T08:45:27;7.65;;;2.22;;
46230;SDS011;31949;51.404;-0.038;2023-04-25T08:47:58;11.00;;;2.55;;
46230;SDS011;31949;51.404;-0.038;2023-04-25T08:50:26;9.73;;;2.47;;
46230;SDS011;31949;51.404;-0.038;2023-04-25T08:52:54;7.22;;;2.35;;
46230;SDS011;31949;51.404;-0.038;2023-04-25T08:55:24;6.53;;;1.83;;
46230;SDS011;31949;51.404;-0.038;2023-04-25T08:57:56;5.95;;;2.50;;
46230;SDS011;31949;51.404;-0.038;2023-04-25T09:00:26;10.05;;;3.00;;
46230;SDS011;31949;51.404;-0.038;2023-04-25T09:02:55;8.38;;;1.83;;
46230;SDS011;31949;51.404;-0.038;2023-04-25T09:05:28;13.75;;;3.17;;
46230;SDS011;31949;51.404;-0.038;2023-04-25T09:07:56;12.65;;;1.90;;
46230;SDS011;31949;51.404;-0.038;2023-04-25T09:10:24;6.57;;;2.65;;
46230;SDS011;31949;51.404;-0.038;2023-04-25T09:16:15;5.20;;;1.80;;
46230;SDS011;31949;51.404;-0.038;2023-04-25T09:19:27;9.43;;;2.45;;
46230;SDS011;31949;51.404;-0.038;2023-04-25T09:22:16;4.38;;;1.83;;
46230;SDS011;31949;51.404;-0.038;2023-04-25T09:24:48;6.00;;;2.08;;
46230;SDS011;31949;51.404;-0.038;2023-04-25T09:27:20;8.25;;;2.40;;
46230;SDS011;31949;51.404;-0.038;2023-04-25T09:30:00;8.20;;;2.42;;
46230;SDS011;31949;51.404;-0.038;2023-04-25T09:32:37;5.32;;;1.77;;
46230;SDS011;31949;51.404;-0.038;2023-04-25T09:35:05;10.05;;;2.30;;
46230;SDS011;31949;51.404;-0.038;2023-04-25T09:37:32;8.73;;;2.20;;
46230;SDS011;31949;51.404;-0.038;2023-04-25T09:40:05;6.40;;;2.08;;
46230;SDS011;31949;51.404;-0.038;2023-04-25T09:43:05;7.53;;;2.58;;
46230;SDS011;31949;51.404;-0.038;2023-04-25T09:45:42;5.95;;;2.28;;
46230;SDS011;31949;51.404;-0.038;2023-04-25T09:48:19;6.15;;;2.47;;
46230;SDS011;31949;51.404;-0.038;2023-04-25T09:53:44;4.40;;;1.92;;
46230;SDS011;31949;51.404;-0.038;2023-04-25T09:56:22;6.47;;;1.80;;
46230;SDS011;31949;51.404;-0.038;2023-04-25T09:58:51;8.52;;;2.33;;
46230;SDS011;31949;51.404;-0.038;2023-04-25T10:01:21;6.88;;;2.30;;
46230;SDS011;31949;51.404;-0.038;2023-04-25T10:06:54;8.73;;;1.80;;
46230;SDS011;31949;51.404;-0.038;2023-04-25T10:09:24;3.92;;;1.50;;
46230;SDS011;31949;51.404;-0.038;2023-04-25T10:11:53;7.18;;;1.50;;
46230;SDS011;31949;51.404;-0.038;2023-04-25T10:14:21;5.18;;;1.48;;
46230;SDS011;31949;51.404;-0.038;2023-04-25T10:16:50;4.35;;;1.40;;
46230;SDS011;31949;51.404;-0.038;2023-04-25T10:19:20;6.45;;;1.65;;
46230;SDS011;31949;51.404;-0.038;2023-04-25T10:21:52;5.55;;;1.58;;
46230;SDS011;31949;51.404;-0.038;2023-04-25T10:24:24;7.28;;;1.63;;
46230;SDS011;31949;51.404;-0.038;2023-04-25T10:26:53;5.40;;;1.73;;
46230;SDS011;31949;51.404;-0.038;2023-04-25T10:29:24;4.30;;;1.38;;
46230;SDS011;31949;51.404;-0.038;2023-04-25T10:31:52;2.20;;;1.20;;
46230;SDS011;31949;51.404;-0.038;2023-04-25T10:34:23;5.30;;;1.92;;
46230;SDS011;31949;51.404;-0.038;2023-04-25T10:36:52;4.50;;;1.67;;
46230;SDS011;31949;51.404;-0.038;2023-04-25T10:39:23;6.82;;;1.30;;
46230;SDS011;31949;51.404;-0.038;2023-04-25T10:41:55;3.60;;;1.58;;
46230;SDS011;31949;51.404;-0.038;2023-04-25T10:44:29;4.35;;;1.30;;
46230;SDS011;31949;51.404;-0.038;2023-04-25T10:46:58;7.20;;;2.38;;
46230;SDS011;31949;51.404;-0.038;2023-04-25T10:55:06;8.23;;;1.77;;
46230;SDS011;31949;51.404;-0.038;2023-04-25T11:00:09;5.15;;;2.00;;
46230;SDS011;31949;51.404;-0.038;2023-04-25T11:02:46;4.43;;;1.30;;
46230;SDS011;31949;51.404;-0.038;2023-04-25T11:08:16;5.10;;;1.25;;
46230;SDS011;31949;51.404;-0.038;2023-04-25T11:10:56;5.95;;;1.95;;
46230;SDS011;31949;51.404;-0.038;2023-04-25T11:13:28;4.35;;;1.08;;
46230;SDS011;31949;51.404;-0.038;2023-04-25T11:15:57;3.45;;;1.73;;
46230;SDS011;31949;51.404;-0.038;2023-04-25T11:18:40;2.67;;;1.47;;
46230;SDS011;31949;51.404;-0.038;2023-04-25T11:21:09;4.28;;;1.35;;
46230;SDS011;31949;51.404;-0.038;2023-04-25T11:23:37;5.10;;;1.30;;
46230;SDS011;31949;51.404;-0.038;2023-04-25T11:26:04;3.55;;;1.40;;
46230;SDS011;31949;51.404;-0.038;2023-04-25T11:28:31;6.18;;;1.70;;
46230;SDS011;31949;51.404;-0.038;2023-04-25T11:30:58;4.35;;;1.67;;
46230;SDS011;31949;51.404;-0.038;2023-04-25T11:33:26;5.53;;;1.88;;
46230;SDS011;31949;51.404;-0.038;2023-04-25T11:35:54;5.20;;;2.10;;
46230;SDS011;31949;51.404;-0.038;2023-04-25T11:38:22;5.50;;;2.05;;
46230;SDS011;31949;51.404;-0.038;2023-04-25T11:40:54;3.80;;;2.22;;
46230;SDS011;31949;51.404;-0.038;2023-04-25T11:43:22;3.45;;;1.75;;
46230;SDS011;31949;51.404;-0.038;2023-04-25T11:45:50;5.30;;;1.60;;
46230;SDS011;31949;51.404;-0.038;2023-04-25T11:48:18;2.83;;;1.92;;
46230;SDS011;31949;51.404;-0.038;2023-04-25T11:50:53;2.65;;;1.45;;
46230;SDS011;31949;51.404;-0.038;2023-04-25T11:53:20;3.90;;;2.33;;
46230;SDS011;31949;51.404;-0.038;2023-04-25T11:55:48;3.38;;;1.58;;
46230;SDS011;31949;51.404;-0.038;2023-04-25T11:58:17;4.80;;;2.08;;
46230;SDS011;31949;51.404;-0.038;2023-04-25T12:00:46;6.97;;;2.50;;
46230;SDS011;31949;51.404;-0.038;2023-04-25T12:03:17;5.13;;;1.80;;
46230;SDS011;31949;51.404;-0.038;2023-04-25T12:05:45;5.07;;;2.00;;
46230;SDS011;31949;51.404;-0.038;2023-04-25T12:08:13;5.00;;;2.63;;
46230;SDS011;31949;51.404;-0.038;2023-04-25T12:10:43;5.47;;;2.55;;
46230;SDS011;31949;51.404;-0.038;2023-04-25T12:13:22;3.60;;;2.53;;
46230;SDS011;31949;51.404;-0.038;2023-04-25T12:15:51;5.35;;;2.83;;
46230;SDS011;31949;51.404;-0.038;2023-04-25T12:18:25;8.40;;;2.75;;
46230;SDS011;31949;51.404;-0.038;2023-04-25T12:20:55;5.38;;;2.10;;
46230;SDS011;31949;51.404;-0.038;2023-04-25T12:23:26;6.78;;;2.58;;
46230;SDS011;31949;51.404;-0.038;2023-04-25T12:25:55;4.60;;;2.10;;
46230;SDS011;31949;51.404;-0.038;2023-04-25T12:28:23;4.35;;;2.58;;
46230;SDS011;31949;51.404;-0.038;2023-04-25T12:30:54;5.95;;;3.33;;
46230;SDS011;31949;51.404;-0.038;2023-04-25T12:33:26;7.88;;;2.80;;
46230;SDS011;31949;51.404;-0.038;2023-04-25T12:35:55;5.82;;;2.85;;
46230;SDS011;31949;51.404;-0.038;2023-04-25T12:38:23;5.25;;;2.80;;
46230;SDS011;31949;51.404;-0.038;2023-04-25T12:40:57;4.57;;;2.80;;
46230;SDS011;31949;51.404;-0.038;2023-04-25T12:43:24;4.85;;;2.78;;
46230;SDS011;31949;51.404;-0.038;2023-04-25T12:45:52;4.40;;;2.30;;
46230;SDS011;31949;51.404;-0.038;2023-04-25T12:48:21;5.28;;;2.30;;
46230;SDS011;31949;51.404;-0.038;2023-04-25T12:50:49;3.10;;;2.30;;
46230;SDS011;31949;51.404;-0.038;2023-04-25T12:53:17;4.43;;;2.38;;
46230;SDS011;31949;51.404;-0.038;2023-04-25T12:58:17;6.68;;;2.25;;
46230;SDS011;31949;51.404;-0.038;2023-04-25T13:00:45;2.38;;;2.13;;
46230;SDS011;31949;51.404;-0.038;2023-04-25T13:03:13;5.47;;;2.72;;
46230;SDS011;31949;51.404;-0.038;2023-04-25T13:05:41;6.13;;;3.10;;
46230;SDS011;31949;51.404;-0.038;2023-04-25T13:08:09;3.42;;;2.20;;
46230;SDS011;31949;51.404;-0.038;2023-04-25T13:10:36;3.25;;;2.42;;
46230;SDS011;31949;51.404;-0.038;2023-04-25T13:13:06;4.28;;;2.00;;
46230;SDS011;31949;51.404;-0.038;2023-04-25T13:15:33;5.05;;;2.05;;
46230;SDS011;31949;51.404;-0.038;2023-04-25T13:18:00;5.47;;;2.67;;
46230;SDS011;31949;51.404;-0.038;2023-04-25T13:20:28;2.20;;;1.67;;
46230;SDS011;31949;51.404;-0.038;2023-04-25T13:22:55;5.45;;;2.28;;
46230;SDS011;31949;51.404;-0.038;2023-04-25T13:25:25;5.38;;;2.03;;
46230;SDS011;31949;51.404;-0.038;2023-04-25T13:27:52;3.78;;;2.03;;
46230;SDS011;31949;51.404;-0.038;2023-04-25T13:30:20;3.50;;;2.40;;
46230;SDS011;31949;51.404;-0.038;2023-04-25T13:32:47;3.83;;;1.60;;
46230;SDS011;31949;51.404;-0.038;2023-04-25T13:35:14;5.70;;;1.42;;
46230;SDS011;31949;51.404;-0.038;2023-04-25T13:37:44;4.38;;;1.65;;
46230;SDS011;31949;51.404;-0.038;2023-04-25T13:40:12;7.00;;;2.58;;
46230;SDS011;31949;51.404;-0.038;2023-04-25T13:42:39;3.78;;;1.45;;
46230;SDS011;31949;51.404;-0.038;2023-04-25T13:45:07;6.43;;;2.58;;
46230;SDS011;31949;51.404;-0.038;2023-04-25T13:47:34;2.85;;;1.60;;
46230;SDS011;31949;51.404;-0.038;2023-04-25T13:50:02;5.25;;;1.73;;
46230;SDS011;31949;51.404;-0.038;2023-04-25T13:52:32;3.45;;;2.03;;
46230;SDS011;31949;51.404;-0.038;2023-04-25T13:54:59;6.55;;;2.53;;
46230;SDS011;31949;51.404;-0.038;2023-04-25T13:57:33;4.30;;;1.58;;
46230;SDS011;31949;51.404;-0.038;2023-04-25T14:00:00;3.70;;;1.55;;
46230;SDS011;31949;51.404;-0.038;2023-04-25T14:02:36;6.70;;;2.50;;
46230;SDS011;31949;51.404;-0.038;2023-04-25T14:05:05;3.67;;;2.03;;
46230;SDS011;31949;51.404;-0.038;2023-04-25T14:07:33;4.75;;;2.15;;
46230;SDS011;31949;51.404;-0.038;2023-04-25T14:10:01;3.60;;;1.75;;
46230;SDS011;31949;51.404;-0.038;2023-04-25T14:12:32;5.97;;;2.35;;
46230;SDS011;31949;51.404;-0.038;2023-04-25T14:15:02;4.80;;;2.35;;
46230;SDS011;31949;51.404;-0.038;2023-04-25T14:17:31;8.45;;;2.63;;
46230;SDS011;31949;51.404;-0.038;2023-04-25T14:19:58;7.00;;;2.53;;
46230;SDS011;31949;51.404;-0.038;2023-04-25T14:22:26;3.05;;;1.73;;
46230;SDS011;31949;51.404;-0.038;2023-04-25T14:24:54;3.92;;;2.10;;
46230;SDS011;31949;51.404;-0.038;2023-04-25T14:27:21;4.28;;;1.85;;
46230;SDS011;31949;51.404;-0.038;2023-04-25T14:29:49;5.35;;;2.42;;
46230;SDS011;31949;51.404;-0.038;2023-04-25T14:32:16;6.72;;;1.90;;
46230;SDS011;31949;51.404;-0.038;2023-04-25T14:34:44;6.78;;;2.10;;
46230;SDS011;31949;51.404;-0.038;2023-04-25T14:37:11;6.43;;;1.92;;
46230;SDS011;31949;51.404;-0.038;2023-04-25T14:39:38;4.03;;;2.03;;
46230;SDS011;31949;51.404;-0.038;2023-04-25T14:42:06;6.65;;;2.08;;
46230;SDS011;31949;51.404;-0.038;2023-04-25T14:44:33;2.05;;;1.48;;
46230;SDS011;31949;51.404;-0.038;2023-04-25T14:47:00;4.82;;;1.73;;
46230;SDS011;31949;51.404;-0.038;2023-04-25T14:49:28;3.10;;;1.40;;
46230;SDS011;31949;51.404;-0.038;2023-04-25T14:51:55;4.15;;;1.80;;
46230;SDS011;31949;51.404;-0.038;2023-04-25T14:54:23;5.10;;;1.98;;
46230;SDS011;31949;51.404;-0.038;2023-04-25T14:56:50;3.17;;;1.75;;
46230;SDS011;31949;51.404;-0.038;2023-04-25T14:59:18;4.35;;;1.30;;
46230;SDS011;31949;51.404;-0.038;2023-04-25T15:01:46;4.18;;;2.60;;
46230;SDS011;31949;51.404;-0.038;2023-04-25T15:04:13;4.22;;;2.05;;
46230;SDS011;31949;51.404;-0.038;2023-04-25T15:06:42;4.57;;;2.20;;
46230;SDS011;31949;51.404;-0.038;2023-04-25T15:09:10;4.75;;;1.80;;
46230;SDS011;31949;51.404;-0.038;2023-04-25T15:11:38;3.63;;;1.77;;
46230;SDS011;31949;51.404;-0.038;2023-04-25T15:14:05;7.18;;;2.75;;
46230;SDS011;31949;51.404;-0.038;2023-04-25T15:16:33;3.88;;;2.03;;
46230;SDS011;31949;51.404;-0.038;2023-04-25T15:19:00;3.58;;;2.08;;